Time;durP1;ratioP1;P1;durP2;ratioP2;P2;SDS_P1;SDS_P2;PMS_P1;PMS_P2;Temp;Humidity;BMP_temperature;BMP_pressure;BME280_temperature;BME280_humidity;BME280_pressure;Samples;Min_cycle;Max_cycle;Signal;HPM_P1;HPM_P2
2022/01/14 00:00:41;;;;;;;141.13;22.48;;;;;;;1.87;100.00;103742.59;5000723;28;20048;-73
2022/01/14 00:03:06;;;;;;;154.00;23.58;;;;;;;1.98;100.00;103747.06;5003288;28;20030;-74
2022/01/14 00:05:32;;;;;;;128.05;21.23;;;;;;;1.94;100.00;103751.47;5002092;28;20123;-73
2022/01/14 00:07:57;;;;;;;152.77;24.90;;;;;;;1.92;100.00;103738.22;5002350;28;20032;-73
2022/01/14 00:10:27;;;;;;;157.45;21.52;;;;;;;1.98;100.00;103737.38;4996625;28;20531;-73
2022/01/14 00:12:57;;;;;;;107.18;20.45;;;;;;;1.95;100.00;103747.97;5002273;28;20037;-73
2022/01/14 00:15:26;;;;;;;116.30;20.30;;;;;;;2.01;100.00;103755.03;4999610;28;20084;-73
2022/01/14 00:17:53;;;;;;;144.07;23.48;;;;;;;1.98;100.00;103740.03;5003266;28;20053;-73
2022/01/14 00:20:20;;;;;;;121.50;21.17;;;;;;;1.99;100.00;103741.75;5001023;28;20487;-73
2022/01/14 00:22:45;;;;;;;125.72;22.13;;;;;;;1.98;100.00;103739.13;4986539;28;20037;-72
2022/01/14 00:33:12;;;;;;;159.05;24.88;;;;;;;1.98;100.00;103726.78;5003799;28;20037;-73
2022/01/14 00:35:42;;;;;;;158.55;23.92;;;;;;;1.98;100.00;103724.13;4999766;28;20144;-73
2022/01/14 00:38:09;;;;;;;183.05;27.30;;;;;;;1.91;100.00;103717.88;5003693;28;20029;-73
2022/01/14 00:40:35;;;;;;;157.50;20.20;;;;;;;1.83;100.00;103706.38;4988236;28;20030;-72
2022/01/14 00:43:00;;;;;;;139.35;23.13;;;;;;;1.90;100.00;103715.25;5005450;28;20252;-73
2022/01/14 00:45:25;;;;;;;133.25;20.98;;;;;;;1.84;100.00;103717.84;5001110;28;20045;-73
2022/01/14 00:47:51;;;;;;;119.03;19.27;;;;;;;1.90;100.00;103718.75;5002078;28;20833;-73
2022/01/14 00:50:18;;;;;;;121.38;21.45;;;;;;;1.85;100.00;103709.03;5006448;28;20037;-72
2022/01/14 00:52:44;;;;;;;152.48;21.77;;;;;;;1.96;100.00;103704.69;5005696;28;20029;-72
2022/01/14 00:55:13;;;;;;;205.48;26.42;;;;;;;2.01;100.00;103705.56;5005704;28;20480;-73
2022/01/14 01:00:23;;;;;;;;;;;;;;;1.99;100.00;103711.75;5002919;28;20566;-73
2022/01/14 01:02:49;;;;;;;115.57;20.70;;;;;;;1.90;100.00;103710.81;5006648;28;19932;-73
2022/01/14 01:05:15;;;;;;;119.25;20.00;;;;;;;1.91;100.00;103706.41;5002993;28;20480;-73
2022/01/14 01:07:42;;;;;;;104.07;19.48;;;;;;;2.06;100.00;103708.25;5008847;28;20061;-73
2022/01/14 01:10:09;;;;;;;93.47;17.00;;;;;;;2.01;100.00;103696.75;5007189;28;20029;-72
2022/01/14 01:12:45;;;;;;;86.68;17.75;;;;;;;1.91;100.00;103688.72;5003122;28;20022;-72
2022/01/14 01:15:14;;;;;;;155.63;22.20;;;;;;;1.98;100.00;103702.91;5006593;28;20053;-72
2022/01/14 01:17:39;;;;;;;67.00;13.40;;;;;;;1.90;100.00;103697.56;5005108;28;20508;-72
2022/01/14 01:20:11;;;;;;;107.88;18.83;;;;;;;1.91;100.00;103694.03;5006393;28;20053;-72
2022/01/14 01:22:37;;;;;;;130.88;20.10;;;;;;;1.88;100.00;103687.84;5004218;28;20033;-72
2022/01/14 01:25:03;;;;;;;122.72;20.48;;;;;;;1.84;100.00;103679.00;5005261;28;20021;-72
2022/01/14 01:27:30;;;;;;;155.75;23.27;;;;;;;1.82;100.00;103682.50;4988125;28;20384;-72
2022/01/14 01:30:12;;;;;;;135.18;22.90;;;;;;;1.80;100.00;103679.88;4988622;28;20026;-72
2022/01/14 01:32:38;;;;;;;130.88;21.23;;;;;;;1.84;100.00;103686.97;4987254;28;20543;-72
2022/01/14 01:35:03;;;;;;;93.97;18.05;;;;;;;1.87;100.00;103683.44;5006154;28;20029;-72
2022/01/14 01:37:29;;;;;;;144.30;24.30;;;;;;;1.86;100.00;103682.53;5002264;28;20026;-72
2022/01/14 01:39:54;;;;;;;180.27;26.73;;;;;;;2.01;100.00;103687.00;5003911;28;20125;-72
2022/01/14 01:42:26;;;;;;;100.80;19.73;;;;;;;1.77;100.00;103672.78;5004312;28;20033;-72
2022/01/14 01:44:51;;;;;;;123.05;19.65;;;;;;;1.84;100.00;103680.75;5006084;28;20036;-72
2022/01/14 01:47:18;;;;;;;142.45;22.98;;;;;;;1.86;100.00;103685.16;5004589;28;20037;-72
2022/01/14 01:49:43;;;;;;;146.90;21.60;;;;;;;1.79;100.00;103688.69;5003001;28;20041;-72
2022/01/14 01:52:09;;;;;;;122.35;20.23;;;;;;;1.86;100.00;103693.13;5009588;28;20026;-72
2022/01/14 01:54:34;;;;;;;177.30;24.08;;;;;;;1.96;100.00;103686.13;5003220;28;20033;-72
2022/01/14 01:56:59;;;;;;;109.15;17.92;;;;;;;1.95;100.00;103687.88;5003657;28;20068;-72
2022/01/14 01:59:25;;;;;;;139.73;20.33;;;;;;;1.86;100.00;103692.25;5002397;28;20088;-72
2022/01/14 02:01:52;;;;;;;103.20;18.48;;;;;;;1.82;100.00;103685.16;5004730;28;20122;-72
2022/01/14 02:04:17;;;;;;;123.80;19.58;;;;;;;1.89;100.00;103701.09;4997841;28;20080;-73
2022/01/14 02:06:43;;;;;;;79.43;15.00;;;;;;;1.93;100.00;103696.72;5004512;28;20029;-73
2022/01/14 02:09:09;;;;;;;113.30;19.15;;;;;;;1.84;100.00;103679.00;5002916;28;20033;-72
2022/01/14 02:11:34;;;;;;;112.35;18.00;;;;;;;1.92;100.00;103689.63;5003847;28;20511;-72
2022/01/14 02:14:05;;;;;;;131.63;20.15;;;;;;;1.86;100.00;103698.41;5006562;28;20037;-72
2022/01/14 02:16:36;;;;;;;94.43;16.17;;;;;;;1.91;100.00;103704.63;4985963;28;20092;-72
2022/01/14 02:19:16;;;;;;;110.47;19.75;;;;;;;1.87;100.00;103700.19;4986199;28;20416;-73
2022/01/14 02:24:55;;;;;;;106.93;18.40;;;;;;;1.85;100.00;103679.88;5000843;28;20040;-72
2022/01/14 02:27:19;;;;;;;108.05;19.05;;;;;;;1.86;100.00;103686.94;5003464;28;20486;-72
2022/01/14 02:29:44;;;;;;;135.10;20.95;;;;;;;1.80;100.00;103680.75;4984574;28;20026;-72
2022/01/14 02:32:10;;;;;;;160.43;20.48;;;;;;;1.71;100.00;103667.47;5004275;28;20038;-72
2022/01/14 02:34:39;;;;;;;140.02;19.52;;;;;;;1.70;100.00;103667.44;4986368;28;20064;-72
2022/01/14 02:37:06;;;;;;;152.75;24.25;;;;;;;1.72;100.00;103663.03;4982822;28;20390;-72
2022/01/14 02:39:32;;;;;;;124.82;20.52;;;;;;;1.74;100.00;103669.22;5001983;28;20117;-72
2022/01/14 02:41:57;;;;;;;127.82;19.20;;;;;;;1.73;100.00;103676.28;4987418;28;20473;-72
2022/01/14 02:44:25;;;;;;;115.35;16.85;;;;;;;1.78;100.00;103671.03;4985083;28;20042;-72
2022/01/14 02:47:03;;;;;;;123.63;19.63;;;;;;;1.77;100.00;103659.53;4988969;28;20033;-72
2022/01/14 02:49:31;;;;;;;148.68;19.52;;;;;;;1.69;100.00;103644.47;5002939;28;20037;-72
2022/01/14 02:51:57;;;;;;;174.18;23.83;;;;;;;1.73;100.00;103652.44;5004260;28;20029;-72
2022/01/14 02:54:31;;;;;;;117.38;19.25;;;;;;;1.73;100.00;103649.78;4984520;28;20121;-72
2022/01/14 02:56:57;;;;;;;133.70;19.40;;;;;;;1.69;100.00;103642.75;4999755;28;20045;-72
2022/01/14 02:59:23;;;;;;;108.22;17.58;;;;;;;1.64;100.00;103628.56;5003724;28;20477;-72
2022/01/14 03:01:49;;;;;;;136.05;19.85;;;;;;;1.75;100.00;103647.16;5002192;28;20033;-72
2022/01/14 03:04:17;;;;;;;143.20;22.38;;;;;;;1.70;100.00;103649.81;5001872;28;20456;-72
2022/01/14 03:06:42;;;;;;;131.65;21.92;;;;;;;1.65;100.00;103639.16;5002564;28;20025;-72
2022/01/14 03:09:08;;;;;;;142.63;21.70;;;;;;;1.69;100.00;103641.84;5004055;28;20044;-72
2022/01/14 03:11:48;;;;;;;116.72;18.23;;;;;;;1.59;100.00;103635.59;4985368;28;20404;-72
2022/01/14 03:14:21;;;;;;;168.93;20.27;;;;;;;1.57;100.00;103637.38;5007473;28;20435;-72
2022/01/14 03:16:48;;;;;;;135.05;21.63;;;;;;;1.52;100.00;103639.09;5000957;28;20471;-72
2022/01/14 03:19:19;;;;;;;127.05;21.55;;;;;;;1.52;100.00;103632.06;5004440;28;20037;-72
2022/01/14 03:21:45;;;;;;;126.50;18.77;;;;;;;1.46;100.00;103629.38;4990936;28;20439;-72
2022/01/14 03:27:00;;;;;;;128.27;19.85;;;;;;;1.47;100.00;103633.78;4976818;28;20040;-72
2022/01/14 03:29:25;;;;;;;124.53;19.95;;;;;;;1.40;100.00;103634.63;5004492;28;20030;-72
2022/01/14 03:31:50;;;;;;;177.98;24.80;;;;;;;1.29;100.00;103622.22;5002460;28;20041;-74
2022/01/14 03:34:16;;;;;;;152.20;20.85;;;;;;;1.39;100.00;103641.69;4997598;28;20816;-73
2022/01/14 03:36:41;;;;;;;135.30;23.42;;;;;;;1.33;100.00;103637.22;5000204;28;20527;-72
2022/01/14 03:39:06;;;;;;;169.05;25.35;;;;;;;1.37;100.00;103632.84;4986295;28;20044;-73
2022/01/14 03:41:32;;;;;;;145.05;23.60;;;;;;;1.23;100.00;103626.56;5002492;28;20057;-73
2022/01/14 03:43:57;;;;;;;141.73;21.67;;;;;;;1.38;100.00;103613.44;5005275;28;20073;-73
2022/01/14 03:46:22;;;;;;;144.10;22.52;;;;;;;1.39;100.00;103623.16;5002994;28;20116;-72
2022/01/14 03:48:48;;;;;;;152.48;21.50;;;;;;;1.31;100.00;103620.47;5002685;28;20194;-73
2022/01/14 03:51:13;;;;;;;78.90;13.68;;;;;;;1.21;100.00;103618.63;5006321;28;20033;-73
2022/01/14 03:53:39;;;;;;;139.10;21.15;;;;;;;1.30;100.00;103624.00;5001406;28;20061;-73
2022/01/14 03:56:04;;;;;;;116.03;18.05;;;;;;;1.23;100.00;103619.53;4986259;28;20037;-73
2022/01/14 03:58:30;;;;;;;144.43;21.08;;;;;;;1.30;100.00;103615.16;5000900;28;20034;-73
2022/01/14 04:00:55;;;;;;;156.05;25.02;;;;;;;1.33;100.00;103621.34;5002703;28;20030;-73
2022/01/14 04:03:20;;;;;;;91.85;16.45;;;;;;;1.27;100.00;103620.44;4984919;28;20058;-73
2022/01/14 04:05:45;;;;;;;128.57;19.73;;;;;;;1.38;100.00;103624.03;5004367;28;20033;-74
2022/01/14 04:08:11;;;;;;;102.13;17.45;;;;;;;1.38;100.00;103612.53;5001197;28;20380;-74
2022/01/14 04:10:36;;;;;;;125.65;18.83;;;;;;;1.46;100.00;103609.06;4985521;28;20109;-73
2022/01/14 04:13:13;;;;;;;136.43;21.92;;;;;;;1.37;100.00;103614.31;4996934;28;20034;-73
2022/01/14 04:15:38;;;;;;;73.13;14.88;;;;;;;1.42;100.00;103615.25;4987504;28;20061;-73
2022/01/14 04:18:05;;;;;;;118.78;20.42;;;;;;;1.42;100.00;103619.63;5001567;28;20654;-73
2022/01/14 04:20:32;;;;;;;148.43;24.90;;;;;;;1.24;100.00;103610.72;4985931;28;20543;-74
2022/01/14 04:22:57;;;;;;;98.30;15.93;;;;;;;1.39;100.00;103619.59;4996694;28;20030;-73
2022/01/14 04:25:23;;;;;;;113.97;18.13;;;;;;;1.33;100.00;103604.59;4998671;28;20057;-73
2022/01/14 04:27:48;;;;;;;151.63;22.13;;;;;;;1.24;100.00;103600.13;5004426;28;20104;-74
2022/01/14 04:30:14;;;;;;;153.38;23.40;;;;;;;1.24;100.00;103593.94;5007264;28;20108;-73
2022/01/14 04:32:39;;;;;;;137.07;21.88;;;;;;;1.16;100.00;103593.91;5006504;28;20403;-73
2022/01/14 04:35:05;;;;;;;92.60;16.95;;;;;;;1.15;100.00;103584.19;5007940;28;20538;-73
2022/01/14 04:37:30;;;;;;;113.22;18.77;;;;;;;1.26;100.00;103598.38;4986505;28;20041;-73
2022/01/14 04:39:56;;;;;;;132.23;19.75;;;;;;;1.29;100.00;103601.03;5005199;28;20117;-72
2022/01/14 04:42:22;;;;;;;136.75;20.40;;;;;;;1.12;100.00;103574.47;5005494;28;20108;-72
2022/01/14 04:44:51;;;;;;;134.15;18.48;;;;;;;1.24;100.00;103586.00;5001325;28;20065;-72
2022/01/14 04:47:19;;;;;;;144.77;20.40;;;;;;;1.16;100.00;103576.28;4990674;28;20481;-72
2022/01/14 04:49:44;;;;;;;152.07;22.40;;;;;;;1.33;100.00;103586.06;4985766;28;20061;-73
2022/01/14 04:52:09;;;;;;;162.55;25.45;;;;;;;1.16;100.00;103578.00;5005774;28;20171;-74
2022/01/14 04:54:35;;;;;;;139.93;24.50;;;;;;;1.17;100.00;103580.69;5003454;28;20381;-72
2022/01/14 04:57:01;;;;;;;139.02;22.13;;;;;;;1.19;100.00;103575.38;5006594;28;20093;-73
2022/01/14 04:59:26;;;;;;;175.77;25.45;;;;;;;1.26;100.00;103585.16;4989402;28;20049;-72
2022/01/14 05:01:52;;;;;;;113.55;18.13;;;;;;;1.23;100.00;103571.88;4988343;28;20408;-72
2022/01/14 05:04:17;;;;;;;136.38;20.23;;;;;;;1.20;100.00;103572.75;5004363;28;20121;-72
2022/01/14 05:06:46;;;;;;;139.20;18.88;;;;;;;1.31;100.00;103577.22;5007678;28;20026;-73
2022/01/14 05:09:22;;;;;;;159.20;23.55;;;;;;;1.22;100.00;103569.22;4988438;28;20414;-72
2022/01/14 05:11:54;;;;;;;181.25;27.58;;;;;;;1.14;100.00;103551.56;4987616;28;20029;-72
2022/01/14 05:14:19;;;;;;;132.80;19.90;;;;;;;1.19;100.00;103557.72;5003043;28;20040;-72
2022/01/14 05:16:45;;;;;;;137.02;19.67;;;;;;;1.26;100.00;103560.41;5006798;28;20037;-72
2022/01/14 05:19:10;;;;;;;151.63;19.50;;;;;;;1.30;100.00;103562.22;5003154;28;20036;-73
2022/01/14 05:21:36;;;;;;;197.27;24.55;;;;;;;1.31;100.00;103567.53;4987919;28;20042;-72
2022/01/14 05:24:01;;;;;;;147.75;21.90;;;;;;;1.31;100.00;103564.88;5004479;28;20033;-72
2022/01/14 05:26:26;;;;;;;169.00;24.95;;;;;;;1.26;100.00;103560.41;4988537;28;20033;-73
2022/01/14 05:28:52;;;;;;;157.60;22.23;;;;;;;1.25;100.00;103559.56;5005547;28;20034;-72
2022/01/14 05:31:17;;;;;;;202.23;26.58;;;;;;;1.25;100.00;103558.66;4987878;28;20036;-72
2022/01/14 05:33:46;;;;;;;166.68;23.77;;;;;;;1.21;100.00;103552.47;5005291;28;20068;-72
2022/01/14 05:36:11;;;;;;;218.75;28.17;;;;;;;1.20;100.00;103561.28;5002905;28;20034;-73
2022/01/14 05:38:36;;;;;;;143.10;19.60;;;;;;;1.30;100.00;103584.28;5007210;28;20535;-73
2022/01/14 05:41:02;;;;;;;188.57;23.10;;;;;;;1.28;100.00;103567.50;4989696;28;20057;-72
2022/01/14 05:43:27;;;;;;;170.05;23.60;;;;;;;1.24;100.00;103563.06;5000332;28;20572;-72
2022/01/14 05:45:53;;;;;;;125.60;19.50;;;;;;;1.31;100.00;103566.63;5013681;28;20051;-72
2022/01/14 05:48:18;;;;;;;129.63;18.83;;;;;;;1.28;100.00;103579.84;4989361;28;20041;-72
2022/01/14 05:50:43;;;;;;;106.07;18.05;;;;;;;1.23;100.00;103556.00;5003951;28;20451;-72
2022/01/14 05:53:09;;;;;;;84.78;15.88;;;;;;;1.27;100.00;103556.91;5004179;28;20764;-73
2022/01/14 05:55:34;;;;;;;89.18;17.88;;;;;;;1.28;100.00;103561.31;5006324;28;20033;-72
2022/01/14 05:57:59;;;;;;;112.53;20.42;;;;;;;1.38;100.00;103579.03;5004762;28;20034;-72
2022/01/14 06:00:25;;;;;;;200.15;25.65;;;;;;;1.51;100.00;103582.63;4987487;28;20061;-72
2022/01/14 06:02:51;;;;;;;93.30;17.13;;;;;;;1.26;100.00;103577.19;5002680;28;20404;-71
2022/01/14 06:05:17;;;;;;;130.55;21.48;;;;;;;1.42;100.00;103582.56;4983067;28;20033;-70
2022/01/14 06:07:42;;;;;;;68.05;17.35;;;;;;;1.43;100.00;103579.03;5006085;28;20095;-69
2022/01/14 06:10:08;;;;;;;84.55;16.33;;;;;;;1.44;100.00;103588.75;5008402;28;20597;-69
2022/01/14 06:12:34;;;;;;;83.80;16.13;;;;;;;1.42;100.00;103583.47;4987094;28;20029;-71
2022/01/14 06:15:00;;;;;;;87.00;16.50;;;;;;;1.52;100.00;103589.69;5003267;28;20026;-68
2022/01/14 06:17:26;;;;;;;115.30;17.92;;;;;;;1.45;100.00;103585.22;5005187;28;20503;-68
2022/01/14 06:19:51;;;;;;;134.32;18.23;;;;;;;1.43;100.00;103574.66;5005558;28;20037;-70
2022/01/14 06:22:16;;;;;;;78.75;14.85;;;;;;;1.49;100.00;103587.88;5005449;28;20037;-69
2022/01/14 06:24:42;;;;;;;85.35;15.70;;;;;;;1.41;100.00;103573.75;5005807;28;20030;-70
2022/01/14 06:27:07;;;;;;;104.40;15.82;;;;;;;1.35;100.00;103577.22;5002530;28;20030;-70
2022/01/14 06:29:33;;;;;;;94.63;16.08;;;;;;;1.20;100.00;103558.63;5000203;28;20041;-70
2022/01/14 06:31:58;;;;;;;103.72;18.35;;;;;;;1.24;100.00;103562.16;5004750;28;20044;-70
2022/01/14 06:34:23;;;;;;;80.50;16.23;;;;;;;1.26;100.00;103579.84;5004711;28;20065;-70
2022/01/14 06:36:49;;;;;;;103.03;16.17;;;;;;;1.38;100.00;103578.13;5003637;28;20414;-70
2022/01/14 06:39:14;;;;;;;140.77;19.20;;;;;;;1.21;100.00;103573.63;5004618;28;20025;-70
2022/01/14 06:41:39;;;;;;;140.13;20.88;;;;;;;1.22;100.00;103570.13;5006286;28;20033;-70
2022/01/14 06:44:05;;;;;;;135.23;18.02;;;;;;;1.20;100.00;103556.00;5002448;28;20034;-70
2022/01/14 06:46:31;;;;;;;101.70;15.98;;;;;;;1.16;100.00;103573.63;5003194;28;20061;-70
2022/01/14 06:48:56;;;;;;;223.85;28.60;;;;;;;1.24;100.00;103552.47;5003777;28;20065;-70
2022/01/14 06:51:21;;;;;;;75.68;13.68;;;;;;;1.24;100.00;103560.44;5003984;28;20979;-70
2022/01/14 06:53:46;;;;;;;143.10;20.38;;;;;;;1.25;100.00;103561.28;4988650;28;20064;-70
2022/01/14 06:56:14;;;;;;;132.18;17.73;;;;;;;1.17;100.00;103571.84;4987423;28;20116;-70
2022/01/14 06:58:39;;;;;;;146.10;19.80;;;;;;;1.01;100.00;103555.00;4986913;28;20118;-70
2022/01/14 07:01:05;;;;;;;104.80;16.98;;;;;;;1.19;100.00;103576.25;4986163;28;20116;-70
2022/01/14 07:03:30;;;;;;;81.72;13.75;;;;;;;1.29;100.00;103581.63;5001369;28;20518;-70
2022/01/14 07:05:55;;;;;;;71.18;13.35;;;;;;;1.35;100.00;103589.59;5004945;28;20124;-70
2022/01/14 07:08:21;;;;;;;100.35;16.83;;;;;;;1.25;100.00;103578.09;5001262;28;20026;-70
2022/01/14 07:10:46;;;;;;;125.05;22.25;;;;;;;1.11;100.00;103562.13;5004437;28;20038;-72
2022/01/14 07:13:11;;;;;;;164.63;21.00;;;;;;;1.09;100.00;103548.00;5000920;28;20030;-74
2022/01/14 07:15:37;;;;;;;86.53;14.88;;;;;;;1.14;100.00;103566.53;4988592;28;20078;-72
2022/01/14 07:18:02;;;;;;;184.48;25.80;;;;;;;1.08;100.00;103554.16;5004429;28;20030;-72
2022/01/14 07:20:28;;;;;;;199.85;23.27;;;;;;;1.17;100.00;103563.91;4996641;28;20498;-72
2022/01/14 07:22:53;;;;;;;114.78;15.30;;;;;;;0.94;100.00;103569.94;4985891;28;20068;-72
2022/01/14 07:25:19;;;;;;;179.95;23.77;;;;;;;1.06;100.00;103566.50;4984541;28;20632;-72
2022/01/14 07:27:45;;;;;;;162.55;21.88;;;;;;;1.21;100.00;103576.28;4986502;28;20567;-70
2022/01/14 07:30:11;;;;;;;238.32;28.67;;;;;;;1.22;100.00;103566.56;4985324;28;20065;-72
2022/01/14 07:32:36;;;;;;;280.67;34.28;;;;;;;1.26;100.00;103566.63;4996644;28;20034;-71
2022/01/14 07:35:02;;;;;;;154.18;22.05;;;;;;;1.01;100.00;103552.34;5002696;28;20337;-71
2022/01/14 07:37:28;;;;;;;165.13;20.25;;;;;;;1.00;100.00;103566.44;4998395;28;20088;-72
2022/01/14 07:39:53;;;;;;;249.50;30.63;;;;;;;1.01;100.00;103544.41;5002568;28;20423;-72
2022/01/14 07:42:19;;;;;;;164.40;22.83;;;;;;;0.86;100.00;103542.56;5003365;28;20128;-72
2022/01/14 07:44:44;;;;;;;150.68;22.10;;;;;;;0.95;100.00;103555.84;4987779;28;20029;-71
2022/01/14 07:47:10;;;;;;;103.32;16.27;;;;;;;0.96;100.00;103562.91;5004548;28;20524;-72
2022/01/14 07:49:35;;;;;;;152.93;23.30;;;;;;;0.91;100.00;103547.91;5002057;28;20029;-72
2022/01/14 07:52:01;;;;;;;151.10;22.23;;;;;;;0.91;100.00;103561.13;5005092;28;20037;-72
2022/01/14 07:54:26;;;;;;;123.50;21.48;;;;;;;0.95;100.00;103576.09;5002528;28;20436;-72
2022/01/14 07:56:54;;;;;;;158.27;20.52;;;;;;;0.74;100.00;103540.72;4987657;28;20030;-72
2022/01/14 07:59:21;;;;;;;178.70;22.80;;;;;;;0.94;100.00;103575.25;4986113;28;20021;-71
2022/01/14 08:01:48;;;;;;;149.93;23.10;;;;;;;0.77;100.00;103571.59;5015068;28;20056;-72
2022/01/14 08:04:15;;;;;;;115.90;17.70;;;;;;;0.77;100.00;103577.75;5003006;28;20030;-71
2022/01/14 08:06:46;;;;;;;88.57;14.88;;;;;;;0.83;100.00;103583.09;5002885;28;20034;-71
2022/01/14 08:09:13;;;;;;;175.25;26.40;;;;;;;1.07;100.00;103596.47;5003614;28;20030;-71
2022/01/14 08:11:38;;;;;;;167.05;21.50;;;;;;;0.90;100.00;103584.03;5002945;28;20113;-72
2022/01/14 08:14:03;;;;;;;114.13;19.10;;;;;;;0.86;100.00;103583.13;4986367;28;20037;-72
2022/01/14 08:16:29;;;;;;;119.57;20.02;;;;;;;0.85;100.00;103585.75;5002870;28;20452;-72
2022/01/14 08:18:54;;;;;;;177.60;26.13;;;;;;;0.82;100.00;103554.88;5004560;28;20064;-72
2022/01/14 08:21:19;;;;;;;102.95;13.57;;;;;;;0.76;100.00;103570.69;5001633;28;20559;-71
2022/01/14 08:23:45;;;;;;;117.10;19.05;;;;;;;0.78;100.00;103558.38;4997947;28;20298;-72
2022/01/14 08:26:10;;;;;;;85.72;14.32;;;;;;;0.63;100.00;103563.56;5002551;28;20061;-71
2022/01/14 08:28:36;;;;;;;137.52;21.42;;;;;;;0.76;100.00;103573.34;5005637;28;20040;-71
2022/01/14 08:31:01;;;;;;;92.60;14.63;;;;;;;0.83;100.00;103590.13;5004389;28;20060;-72
2022/01/14 08:33:26;;;;;;;87.47;13.90;;;;;;;0.83;100.00;103592.78;5005503;28;20037;-71
2022/01/14 08:35:52;;;;;;;82.82;14.63;;;;;;;0.71;100.00;103570.69;4983059;28;20038;-72
2022/01/14 08:38:17;;;;;;;121.63;19.65;;;;;;;0.81;100.00;103592.78;4999605;28;20514;-72
2022/01/14 08:40:42;;;;;;;132.40;22.73;;;;;;;0.85;100.00;103577.81;5000454;28;20108;-72
2022/01/14 08:43:08;;;;;;;132.60;20.85;;;;;;;0.68;100.00;103575.94;5008903;28;20246;-72
2022/01/14 08:45:34;;;;;;;90.40;15.25;;;;;;;0.82;100.00;103578.69;5004851;28;20520;-74
2022/01/14 08:47:59;;;;;;;166.40;23.58;;;;;;;0.77;100.00;103574.25;5003073;28;20053;-73
2022/01/14 08:50:30;;;;;;;105.15;17.35;;;;;;;0.67;100.00;103562.69;4999677;28;20499;-72
2022/01/14 08:52:56;;;;;;;113.22;19.58;;;;;;;0.74;100.00;103570.69;4999016;28;20034;-70
2022/01/14 08:55:22;;;;;;;101.35;15.68;;;;;;;0.91;100.00;103592.88;5008807;28;20061;-73
2022/01/14 08:57:47;;;;;;;72.97;13.63;;;;;;;0.89;100.00;103587.53;5000914;28;20103;-73
2022/01/14 09:00:14;;;;;;;166.45;21.77;;;;;;;0.96;100.00;103589.38;5000983;28;20141;-75
2022/01/14 09:02:40;;;;;;;114.40;16.52;;;;;;;0.99;100.00;103594.69;4998841;28;20034;-73
2022/01/14 09:05:06;;;;;;;124.00;17.65;;;;;;;1.02;100.00;103591.16;5007408;28;20043;-73
2022/01/14 09:07:31;;;;;;;68.40;13.32;;;;;;;1.10;100.00;103607.09;5002871;28;20481;-73
2022/01/14 09:09:57;;;;;;;101.20;16.27;;;;;;;1.09;100.00;103600.00;5000979;28;20061;-73
2022/01/14 09:12:22;;;;;;;75.60;14.35;;;;;;;1.05;100.00;103596.47;5000136;28;20032;-74
2022/01/14 09:14:48;;;;;;;80.05;13.52;;;;;;;1.16;100.00;103597.44;5005120;28;20134;-73
2022/01/14 09:17:13;;;;;;;130.88;18.10;;;;;;;1.18;100.00;103600.09;5004601;28;20065;-73
2022/01/14 09:19:40;;;;;;;59.85;13.00;;;;;;;1.15;100.00;103597.41;5006115;28;20037;-73
2022/01/14 09:22:06;;;;;;;108.72;16.55;;;;;;;1.20;100.00;103595.69;4989588;28;20040;-73
2022/01/14 09:24:32;;;;;;;69.78;14.32;;;;;;;1.20;100.00;103601.84;5003059;28;20542;-73
2022/01/14 09:26:57;;;;;;;121.70;15.02;;;;;;;1.24;100.00;103607.16;5005179;28;20026;-73
2022/01/14 09:29:22;;;;;;;143.02;18.83;;;;;;;1.35;100.00;103624.00;5005969;28;20052;-73
2022/01/14 09:31:47;;;;;;;98.25;13.82;;;;;;;1.37;100.00;103614.31;5004043;28;20033;-73
2022/01/14 09:34:13;;;;;;;132.93;19.33;;;;;;;1.48;100.00;103603.78;5004351;28;20053;-73
2022/01/14 09:36:38;;;;;;;143.43;18.13;;;;;;;1.42;100.00;103612.59;5006966;28;20038;-73
2022/01/14 09:39:04;;;;;;;95.80;15.07;;;;;;;1.45;100.00;103609.97;5005382;28;20513;-73
2022/01/14 09:41:29;;;;;;;128.57;17.52;;;;;;;1.38;100.00;103600.22;4987097;28;20234;-73
2022/01/14 09:43:55;;;;;;;113.85;17.75;;;;;;;1.37;100.00;103592.25;5006807;28;20113;-72
2022/01/14 09:46:20;;;;;;;79.53;15.02;;;;;;;1.44;100.00;103605.53;5009217;28;20084;-74
2022/01/14 09:48:48;;;;;;;130.52;19.15;;;;;;;1.27;100.00;103594.84;5003300;28;21435;-73
2022/01/14 09:51:13;;;;;;;100.65;17.80;;;;;;;1.35;100.00;103602.84;5011412;28;20421;-73
2022/01/14 09:53:39;;;;;;;112.18;19.58;;;;;;;1.40;100.00;103605.50;5000174;28;20021;-73
2022/01/14 09:56:04;;;;;;;97.82;15.43;;;;;;;1.44;100.00;103607.28;5011714;28;20309;-73
2022/01/14 09:58:36;;;;;;;107.20;16.88;;;;;;;1.51;100.00;103614.41;5002492;28;20049;-73
2022/01/14 10:01:14;;;;;;;162.07;23.00;;;;;;;1.42;100.00;103620.53;5007773;28;20045;-73
2022/01/14 10:03:51;;;;;;;99.00;16.60;;;;;;;1.42;100.00;103632.88;5003379;28;20087;-73
2022/01/14 10:06:51;;;;;;;87.00;14.55;;;;;;;1.37;100.00;103610.78;5008075;28;20543;-73
2022/01/14 10:09:39;;;;;;;245.27;35.70;;;;;;;1.57;100.00;103621.47;5009884;28;20049;-73
2022/01/14 10:12:15;;;;;;;126.70;17.65;;;;;;;1.46;100.00;103621.41;5004647;28;20433;-71
2022/01/14 10:14:52;;;;;;;111.10;18.95;;;;;;;1.46;100.00;103613.47;5010219;28;20468;-71
2022/01/14 10:17:17;;;;;;;109.53;18.88;;;;;;;1.59;100.00;103625.03;5004302;28;20037;-71
2022/01/14 10:19:44;;;;;;;122.35;21.92;;;;;;;1.56;100.00;103611.75;5010728;28;20025;-71
2022/01/14 10:22:21;;;;;;;119.18;18.65;;;;;;;1.66;100.00;103621.53;5007416;28;20021;-71
2022/01/14 10:25:02;;;;;;;87.15;15.75;;;;;;;1.59;100.00;103622.38;5003727;28;20121;-71
2022/01/14 10:27:51;;;;;;;144.07;23.95;;;;;;;1.86;100.00;103620.72;5023205;28;20026;-71
2022/01/14 10:30:23;;;;;;;169.55;28.10;;;;;;;1.82;100.00;103617.19;5002042;28;20030;-71
2022/01/14 10:33:00;;;;;;;160.48;28.17;;;;;;;1.76;100.00;103615.38;5010877;28;20038;-71
2022/01/14 10:35:27;;;;;;;161.23;22.58;;;;;;;1.71;100.00;103619.78;5006222;28;20051;-71
2022/01/14 10:37:59;;;;;;;158.88;23.25;;;;;;;1.73;100.00;103618.00;5012261;28;20109;-71
2022/01/14 10:40:28;;;;;;;259.60;38.97;;;;;;;1.78;100.00;103613.63;5004040;28;20404;-71
2022/01/14 10:43:03;;;;;;;315.48;47.45;;;;;;;1.75;100.00;103604.78;5008621;28;20048;-71
2022/01/14 10:45:30;;;;;;;193.25;29.77;;;;;;;1.83;100.00;103608.34;4998376;28;20056;-71
2022/01/14 10:47:59;;;;;;;153.73;26.40;;;;;;;1.88;100.00;103601.28;5005147;28;20022;-71
2022/01/14 10:50:26;;;;;;;90.35;17.20;;;;;;;1.58;100.00;103584.41;5002539;28;20033;-71
2022/01/14 10:52:51;;;;;;;108.90;19.48;;;;;;;1.75;100.00;103603.00;5005423;28;20524;-71
2022/01/14 10:55:29;;;;;;;125.32;20.25;;;;;;;1.78;100.00;103597.72;5011576;28;20120;-71
2022/01/14 10:57:54;;;;;;;111.20;19.65;;;;;;;1.83;100.00;103576.56;5004370;28;20061;-71
2022/01/14 11:00:20;;;;;;;148.07;25.15;;;;;;;1.93;100.00;103591.59;5004373;28;20069;-71
2022/01/14 11:02:48;;;;;;;151.60;27.17;;;;;;;2.13;100.00;103580.13;5005235;28;20383;-71
2022/01/14 11:05:15;;;;;;;160.60;28.83;;;;;;;2.16;100.00;103587.22;5005683;28;20147;-67
2022/01/14 11:07:41;;;;;;;95.40;19.23;;;;;;;2.12;100.00;103582.81;5003175;28;20033;-67
2022/01/14 11:10:16;;;;;;;188.05;31.60;;;;;;;2.18;100.00;103574.88;5005025;28;20279;-72
2022/01/14 11:12:42;;;;;;;181.32;36.00;;;;;;;2.12;100.00;103577.50;5013090;28;20052;-67
2022/01/14 11:15:08;;;;;;;208.70;31.33;;;;;;;1.89;100.00;103560.66;5007257;28;20042;-71
2022/01/14 11:17:36;;;;;;;174.15;27.10;;;;;;;2.02;100.00;103579.25;5005121;28;20558;-66
2022/01/14 11:20:03;;;;;;;125.22;21.77;;;;;;;2.01;100.00;103577.47;5004124;28;20061;-70